< < Back
Terminal Aerodrome Forecast


Current Version              Previous Versions:   1  2  3  4  5  6  7  8  9  

Terminal Aerodrome Forecast

932
FTUS42 KILM 272320
TAFFLO
TAF
KFLO 272320Z 2800/2824 03007KT P6SM FEW050 BKN250=

Latest METAR

616
SAUS70 KWBC 281900 RRB
MTRFLO
METAR KFLO 281853Z VRB05KT 10SM CLR 21/05 A2992 RMK AO2 SLP129
T02060050


USA.gov is the U.S. government's official web portal to all federal, state and local government web resources and services.